createdAt,value
2018-12-19T00:00:43.597Z,0.28
2018-12-19T00:03:12.145Z,0.25
2018-12-19T00:05:41.066Z,0.27
2018-12-19T00:08:09.702Z,0.28
2018-12-19T00:10:38.228Z,0.29
2018-12-19T00:13:09.392Z,0.31
2018-12-19T00:15:38.645Z,0.31
2018-12-19T00:18:07.351Z,0.28
2018-12-19T00:20:36.410Z,0.28
2018-12-19T00:23:10.874Z,0.27
2018-12-19T00:25:39.420Z,0.25
2018-12-19T00:28:08.213Z,0.23
2018-12-19T00:30:36.750Z,0.23
2018-12-19T00:33:05.339Z,0.24
2018-12-19T00:35:33.854Z,0.24
2018-12-19T00:38:02.420Z,0.25
2018-12-19T00:40:30.982Z,0.29
2018-12-19T00:42:59.717Z,0.31
2018-12-19T00:45:28.485Z,0.31
2018-12-19T00:47:56.970Z,0.32
2018-12-19T00:50:25.532Z,0.33
2018-12-19T00:55:39.442Z,0.37
2018-12-19T00:58:07.764Z,0.37
2018-12-19T01:00:36.115Z,0.35
2018-12-19T01:03:04.625Z,0.38
2018-12-19T01:05:32.983Z,0.39
2018-12-19T01:08:01.301Z,0.40
2018-12-19T01:10:29.705Z,0.40
2018-12-19T01:12:57.997Z,0.40
2018-12-19T01:15:26.345Z,0.37
2018-12-19T01:17:54.643Z,0.35
2018-12-19T01:20:22.982Z,0.34
2018-12-19T01:22:51.314Z,0.32
2018-12-19T01:25:19.641Z,0.31
2018-12-19T01:27:47.977Z,0.29
2018-12-19T01:30:16.988Z,0.31
2018-12-19T01:32:45.289Z,0.33
2018-12-19T01:35:13.687Z,0.34
2018-12-19T01:37:42.109Z,0.38
2018-12-19T01:40:10.493Z,0.39
2018-12-19T01:42:38.815Z,0.39
2018-12-19T01:45:08.311Z,0.38
2018-12-19T01:47:36.657Z,0.38
2018-12-19T01:50:06.257Z,0.39
2018-12-19T01:52:34.634Z,0.34
2018-12-19T01:55:03.042Z,0.31
2018-12-19T01:57:31.357Z,0.30
2018-12-19T01:59:59.677Z,0.31
2018-12-19T02:02:28.048Z,0.28
2018-12-19T02:04:56.434Z,0.29
2018-12-19T02:07:24.806Z,0.26
2018-12-19T02:09:53.278Z,0.20
2018-12-19T02:12:21.660Z,0.19
2018-12-19T02:14:49.977Z,0.17
2018-12-19T02:17:18.314Z,0.15
2018-12-19T02:19:46.645Z,0.15
2018-12-19T02:22:15.076Z,0.15
2018-12-19T02:24:43.371Z,0.14
2018-12-19T02:27:11.689Z,0.11
2018-12-19T02:29:40.020Z,0.09
2018-12-19T02:32:08.611Z,0.09
2018-12-19T02:34:37.013Z,0.09
2018-12-19T02:37:05.343Z,0.07
2018-12-19T02:39:36.311Z,0.07
2018-12-19T02:42:04.008Z,0.06
2018-12-19T02:44:32.406Z,0.06
2018-12-19T02:47:00.997Z,0.04
2018-12-19T02:49:29.309Z,0.00
2018-12-19T02:51:57.635Z,-0.02
2018-12-19T02:54:26.027Z,-0.02
2018-12-19T02:56:54.649Z,-0.02
2018-12-19T02:59:23.000Z,-0.02
2018-12-19T03:01:51.378Z,-0.01
2018-12-19T03:04:19.779Z,0.00
2018-12-19T03:06:48.164Z,-0.02
2018-12-19T03:09:16.479Z,-0.03
2018-12-19T03:11:44.855Z,-0.02
2018-12-19T03:14:13.215Z,0.00
2018-12-19T03:16:41.562Z,-0.01
2018-12-19T03:19:09.960Z,0.02
2018-12-19T03:21:38.291Z,0.03
2018-12-19T03:24:06.715Z,0.06
2018-12-19T03:26:35.086Z,0.06
2018-12-19T03:29:03.402Z,0.10
2018-12-19T03:31:31.853Z,0.11
2018-12-19T03:34:00.250Z,0.12
2018-12-19T03:36:28.587Z,0.13
2018-12-19T03:38:56.959Z,0.14
2018-12-19T03:41:25.695Z,0.16
2018-12-19T03:43:54.016Z,0.14
2018-12-19T03:46:22.412Z,0.11
2018-12-19T03:48:57.296Z,0.07
2018-12-19T03:51:25.727Z,0.06
2018-12-19T03:53:54.071Z,0.08
2018-12-19T03:56:22.389Z,0.11
2018-12-19T03:58:50.765Z,0.14
2018-12-19T04:01:19.161Z,0.15
2018-12-19T04:03:47.568Z,0.16
2018-12-19T04:06:16.326Z,0.16
2018-12-19T04:08:44.699Z,0.19
2018-12-19T04:11:13.077Z,0.23
2018-12-19T04:13:41.465Z,0.25
2018-12-19T04:16:09.830Z,0.27
2018-12-19T04:18:38.217Z,0.28
2018-12-19T04:21:06.544Z,0.27
2018-12-19T04:23:34.982Z,0.27
2018-12-19T04:26:03.305Z,0.25
2018-12-19T04:28:31.748Z,0.26
2018-12-19T04:31:00.068Z,0.24
2018-12-19T04:33:28.395Z,0.23
2018-12-19T04:35:56.748Z,0.23
2018-12-19T04:38:25.449Z,0.25
2018-12-19T04:40:53.832Z,0.25
2018-12-19T04:43:22.174Z,0.25
2018-12-19T04:45:50.504Z,0.26
2018-12-19T04:48:18.835Z,0.29
2018-12-19T04:50:47.165Z,0.31
2018-12-19T04:53:15.498Z,0.31
2018-12-19T04:55:43.832Z,0.32
2018-12-19T04:58:12.175Z,0.33
2018-12-19T05:00:40.547Z,0.33
2018-12-19T05:03:08.924Z,0.35
2018-12-19T05:05:37.240Z,0.35
2018-12-19T05:08:05.933Z,0.39
2018-12-19T05:10:34.273Z,0.45
2018-12-19T05:13:02.697Z,0.48
2018-12-19T05:15:31.024Z,0.48
2018-12-19T05:17:59.334Z,0.52
2018-12-19T05:20:27.663Z,0.54
2018-12-19T05:22:55.987Z,0.52
2018-12-19T05:25:24.323Z,0.55
2018-12-19T05:27:52.725Z,0.58
2018-12-19T05:30:21.099Z,0.61
2018-12-19T05:32:49.491Z,0.63
2018-12-19T05:35:17.951Z,0.65
2018-12-19T05:37:46.352Z,0.65
2018-12-19T05:40:18.803Z,0.68
2018-12-19T05:42:45.016Z,0.73
2018-12-19T05:45:13.346Z,0.76
2018-12-19T05:47:41.668Z,0.79
2018-12-19T05:50:10.512Z,0.82
2018-12-19T05:52:39.090Z,0.82
2018-12-19T05:55:07.489Z,0.79
2018-12-19T05:57:35.851Z,0.80
2018-12-19T06:00:07.510Z,0.80
2018-12-19T06:02:35.828Z,0.80
2018-12-19T06:05:05.441Z,0.80
2018-12-19T06:07:33.844Z,0.82
2018-12-19T06:10:02.231Z,0.83
2018-12-19T06:12:30.628Z,0.85
2018-12-19T06:14:58.952Z,0.87
2018-12-19T06:17:27.275Z,0.88
2018-12-19T06:19:55.614Z,0.90
2018-12-19T06:22:23.923Z,0.90
2018-12-19T06:24:52.322Z,0.90
2018-12-19T06:27:20.650Z,0.91
2018-12-19T06:29:49.068Z,0.92
2018-12-19T06:32:17.408Z,0.92
2018-12-19T06:34:45.750Z,0.93
2018-12-19T06:37:14.171Z,0.93
2018-12-19T06:39:42.509Z,0.92
2018-12-19T06:42:10.862Z,0.95
2018-12-19T06:44:39.534Z,0.96
2018-12-19T06:47:07.908Z,0.95
2018-12-19T06:49:36.203Z,0.95
2018-12-19T06:52:04.539Z,0.93
2018-12-19T06:54:32.956Z,0.95
2018-12-19T06:57:01.735Z,0.97
2018-12-19T06:59:30.125Z,1.00
2018-12-19T07:01:58.481Z,1.01
2018-12-19T07:04:26.887Z,1.00
2018-12-19T07:06:55.174Z,0.99
2018-12-19T07:09:23.969Z,0.97
2018-12-19T07:11:52.409Z,0.94
2018-12-19T07:14:20.799Z,0.93
2018-12-19T07:16:49.248Z,0.89
2018-12-19T07:19:17.551Z,0.86
2018-12-19T07:21:45.889Z,0.83
2018-12-19T07:24:14.207Z,0.84
2018-12-19T07:26:42.552Z,0.84
2018-12-19T07:29:10.922Z,0.85
2018-12-19T07:31:39.232Z,0.89
2018-12-19T07:34:07.544Z,0.94
2018-12-19T07:36:35.998Z,1.00
2018-12-19T07:39:07.145Z,1.05
2018-12-19T07:41:35.478Z,1.10
2018-12-19T07:44:03.792Z,1.12
2018-12-19T07:46:32.285Z,1.18
2018-12-19T07:49:00.771Z,1.22
2018-12-19T07:51:29.149Z,1.25
2018-12-19T07:53:57.541Z,1.29
2018-12-19T07:56:26.099Z,1.31
2018-12-19T07:58:54.481Z,1.33
2018-12-19T08:01:23.292Z,1.36
2018-12-19T08:03:51.767Z,1.38
2018-12-19T08:06:20.142Z,1.40
2018-12-19T08:08:48.490Z,1.42
2018-12-19T08:11:16.819Z,1.44
2018-12-19T08:13:45.349Z,1.46
2018-12-19T08:16:13.692Z,1.47
2018-12-19T08:18:42.007Z,1.49
2018-12-19T08:21:10.321Z,1.51
2018-12-19T08:23:38.635Z,1.55
2018-12-19T08:26:06.939Z,1.57
2018-12-19T08:28:35.376Z,1.59
2018-12-19T08:31:03.745Z,1.61
2018-12-19T08:33:32.059Z,1.63
2018-12-19T08:36:00.476Z,1.66
2018-12-19T08:38:28.790Z,1.68
2018-12-19T08:40:58.961Z,1.70
2018-12-19T08:43:27.504Z,1.72
2018-12-19T08:45:56.298Z,1.73
2018-12-19T08:48:24.628Z,1.74
2018-12-19T08:50:52.959Z,1.78
2018-12-19T08:53:21.545Z,1.81
2018-12-19T08:55:49.861Z,1.83
2018-12-19T08:58:18.175Z,1.87
2018-12-19T09:00:46.499Z,1.88
2018-12-19T09:03:14.808Z,1.89
2018-12-19T09:05:43.107Z,1.92
2018-12-19T09:08:11.426Z,1.93
2018-12-19T09:10:39.752Z,1.95
2018-12-19T09:13:08.079Z,1.94
2018-12-19T09:15:41.762Z,1.95
2018-12-19T09:18:10.102Z,1.94
2018-12-19T09:20:38.401Z,1.95
2018-12-19T09:23:06.723Z,1.94
2018-12-19T09:25:35.022Z,1.95
2018-12-19T09:28:03.407Z,1.94
2018-12-19T09:30:31.711Z,1.94
2018-12-19T09:33:00.023Z,1.95
2018-12-19T09:35:28.395Z,1.95
2018-12-19T09:37:56.719Z,1.98
2018-12-19T09:40:25.023Z,1.99
2018-12-19T09:42:53.420Z,2.01
2018-12-19T09:45:21.725Z,2.04
2018-12-19T09:47:50.039Z,2.06
2018-12-19T09:50:18.368Z,2.08
2018-12-19T09:52:46.669Z,2.11
2018-12-19T09:55:14.981Z,2.12
2018-12-19T09:57:43.349Z,2.13
2018-12-19T10:00:13.914Z,2.12
2018-12-19T10:02:42.235Z,2.15
2018-12-19T10:05:10.896Z,2.19
2018-12-19T10:07:39.204Z,2.21
2018-12-19T10:10:07.583Z,2.24
2018-12-19T10:12:35.892Z,2.30
2018-12-19T10:15:04.888Z,2.35
2018-12-19T10:17:33.455Z,2.39
2018-12-19T10:20:01.775Z,2.45
2018-12-19T10:22:32.219Z,2.50
2018-12-19T10:25:06.306Z,2.54
2018-12-19T10:27:34.611Z,2.58
2018-12-19T10:30:04.347Z,2.62
2018-12-19T10:35:27.788Z,2.66
2018-12-19T10:37:56.210Z,2.64
2018-12-19T10:40:24.610Z,2.63
2018-12-19T10:42:52.988Z,2.63
2018-12-19T10:45:21.439Z,2.62
2018-12-19T10:47:49.757Z,2.60
2018-12-19T10:50:18.095Z,2.62
2018-12-19T10:52:46.592Z,2.63
2018-12-19T10:55:14.956Z,2.61
2018-12-19T10:57:43.338Z,2.63
2018-12-19T11:03:05.856Z,2.71
2018-12-19T11:05:34.189Z,2.74
2018-12-19T11:08:02.519Z,2.77
2018-12-19T11:10:30.993Z,2.80
2018-12-19T11:12:59.335Z,2.88
2018-12-19T11:15:27.658Z,2.89
2018-12-19T11:17:55.963Z,2.95
2018-12-19T11:20:24.289Z,2.98
2018-12-19T11:22:52.599Z,3.01
2018-12-19T11:25:20.919Z,3.01
2018-12-19T11:27:49.227Z,3.04
2018-12-19T11:30:17.551Z,3.02
2018-12-19T11:32:45.915Z,3.00
2018-12-19T11:35:14.230Z,2.98
2018-12-19T11:37:42.591Z,2.96
2018-12-19T11:40:10.987Z,2.96
2018-12-19T11:42:39.298Z,2.97
2018-12-19T11:45:07.803Z,2.98
2018-12-19T11:47:36.110Z,3.01
2018-12-19T11:50:06.792Z,3.00
2018-12-19T11:52:35.169Z,2.99
2018-12-19T11:55:03.549Z,2.99
2018-12-19T11:57:32.123Z,3.00
2018-12-19T12:00:00.452Z,2.95
2018-12-19T12:02:28.772Z,2.96
2018-12-19T12:04:57.087Z,2.98
2018-12-19T12:07:25.483Z,3.02
2018-12-19T12:09:53.821Z,3.03
2018-12-19T12:12:22.187Z,3.03
2018-12-19T12:14:50.498Z,3.03
2018-12-19T12:17:18.926Z,3.04
2018-12-19T12:19:47.235Z,3.08
2018-12-19T12:22:15.557Z,3.13
2018-12-19T12:24:43.881Z,3.18
2018-12-19T12:27:12.202Z,3.23
2018-12-19T12:29:40.510Z,3.24
2018-12-19T12:32:08.829Z,3.24
2018-12-19T12:34:37.129Z,3.27
2018-12-19T12:37:05.456Z,3.30
2018-12-19T12:39:33.763Z,3.34
2018-12-19T12:42:02.150Z,3.35
2018-12-19T12:44:31.011Z,3.35
2018-12-19T12:46:59.328Z,3.39
2018-12-19T12:49:27.644Z,3.41
2018-12-19T12:51:55.977Z,3.42
2018-12-19T12:54:24.379Z,3.42
2018-12-19T12:56:52.698Z,3.42
2018-12-19T12:59:21.019Z,3.43
2018-12-19T13:01:49.355Z,3.44
2018-12-19T13:04:17.669Z,3.45
2018-12-19T13:06:45.970Z,3.46
2018-12-19T13:09:14.300Z,3.46
2018-12-19T13:11:42.614Z,3.44
2018-12-19T13:14:10.956Z,3.40
2018-12-19T13:16:39.314Z,3.38
2018-12-19T13:19:07.624Z,3.36
2018-12-19T13:21:36.089Z,3.32
2018-12-19T13:24:04.540Z,3.34
2018-12-19T13:26:32.864Z,3.32
2018-12-19T13:29:01.195Z,3.32
2018-12-19T13:31:29.505Z,3.31
2018-12-19T13:33:57.894Z,3.31
2018-12-19T13:36:26.343Z,3.33
2018-12-19T13:38:54.671Z,3.35
2018-12-19T13:41:23.083Z,3.36
2018-12-19T13:43:51.422Z,3.37
2018-12-19T13:46:19.744Z,3.39
2018-12-19T13:48:48.067Z,3.41
2018-12-19T13:51:16.385Z,3.43
2018-12-19T13:53:44.712Z,3.46
2018-12-19T13:56:13.015Z,3.47
2018-12-19T13:58:41.780Z,3.47
2018-12-19T14:01:10.171Z,3.47
2018-12-19T14:03:38.511Z,3.46
2018-12-19T14:06:06.826Z,3.45
2018-12-19T14:08:35.154Z,3.43
2018-12-19T14:11:03.487Z,3.41
2018-12-19T14:13:31.847Z,3.39
2018-12-19T14:16:00.160Z,3.39
2018-12-19T14:18:28.487Z,3.36
2018-12-19T14:20:56.827Z,3.36
2018-12-19T14:23:25.156Z,3.32
2018-12-19T14:25:53.464Z,3.31
2018-12-19T14:28:21.815Z,3.28
2018-12-19T14:30:50.128Z,3.23
2018-12-19T14:33:18.465Z,3.19
2018-12-19T14:35:46.768Z,3.16
2018-12-19T14:38:15.109Z,3.16
2018-12-19T14:40:43.430Z,3.16
2018-12-19T14:43:11.765Z,3.15
2018-12-19T14:45:40.058Z,3.11
2018-12-19T14:48:08.362Z,3.09
2018-12-19T14:50:36.762Z,3.05
2018-12-19T14:53:05.057Z,3.03
2018-12-19T14:55:33.390Z,3.01
2018-12-19T14:58:01.713Z,3.00
2018-12-19T15:00:30.046Z,2.98
2018-12-19T15:02:58.475Z,2.96
2018-12-19T15:05:26.808Z,2.97
2018-12-19T15:07:55.212Z,2.99
2018-12-19T15:10:24.398Z,2.99
2018-12-19T15:12:52.723Z,3.00
2018-12-19T15:15:22.805Z,3.02
2018-12-19T15:17:51.210Z,3.04
2018-12-19T15:20:19.536Z,3.07
2018-12-19T15:22:47.848Z,3.08
2018-12-19T15:25:16.179Z,3.09
2018-12-19T15:27:44.487Z,3.12
2018-12-19T15:30:12.817Z,3.15
2018-12-19T15:32:41.386Z,3.17
2018-12-19T15:35:09.702Z,3.20
2018-12-19T15:37:38.013Z,3.23
2018-12-19T15:40:06.483Z,3.26
2018-12-19T15:42:34.783Z,3.29
2018-12-19T15:45:03.112Z,3.30
2018-12-19T15:47:31.432Z,3.30
2018-12-19T15:49:59.811Z,3.30
2018-12-19T15:52:28.125Z,3.31
2018-12-19T15:54:56.443Z,3.33
2018-12-19T15:57:24.753Z,3.33
2018-12-19T15:59:53.058Z,3.32
2018-12-19T16:02:21.447Z,3.34
2018-12-19T16:04:49.760Z,3.36
2018-12-19T16:07:18.077Z,3.38
2018-12-19T16:09:46.502Z,3.38
2018-12-19T16:12:14.859Z,3.39
2018-12-19T16:14:43.161Z,3.41
2018-12-19T16:17:11.596Z,3.42
2018-12-19T16:19:39.911Z,3.41
2018-12-19T16:22:08.219Z,3.44
2018-12-19T16:24:36.551Z,3.46
2018-12-19T16:27:04.975Z,3.48
2018-12-19T16:29:33.287Z,3.48
2018-12-19T16:32:01.686Z,3.47
2018-12-19T16:34:29.995Z,3.48
2018-12-19T16:36:59.359Z,3.48
2018-12-19T16:39:27.687Z,3.48
2018-12-19T16:41:55.992Z,3.47
2018-12-19T16:44:24.322Z,3.48
2018-12-19T16:46:52.839Z,3.48
2018-12-19T16:49:21.150Z,3.48
2018-12-19T16:51:49.470Z,3.47
2018-12-19T16:54:17.788Z,3.48
2018-12-19T16:56:46.107Z,3.47
2018-12-19T16:59:14.439Z,3.47
2018-12-19T17:01:42.910Z,3.48
2018-12-19T17:04:11.211Z,3.48
2018-12-19T17:06:39.527Z,3.48
2018-12-19T17:09:07.893Z,3.47
2018-12-19T17:11:36.316Z,3.45
2018-12-19T17:14:04.747Z,3.46
2018-12-19T17:16:33.170Z,3.44
2018-12-19T17:19:01.544Z,3.43
2018-12-19T17:21:29.851Z,3.44
2018-12-19T17:23:58.211Z,3.43
2018-12-19T17:26:26.548Z,3.44
2018-12-19T17:28:54.855Z,3.46
2018-12-19T17:31:23.228Z,3.48
2018-12-19T17:33:51.544Z,3.49
2018-12-19T17:36:19.878Z,3.50
2018-12-19T17:38:48.261Z,3.51
2018-12-19T17:41:16.652Z,3.52
2018-12-19T17:43:45.031Z,3.52
2018-12-19T17:46:13.348Z,3.51
2018-12-19T17:48:41.687Z,3.51
2018-12-19T17:51:09.997Z,3.52
2018-12-19T17:53:38.347Z,3.50
2018-12-19T17:56:06.876Z,3.51
2018-12-19T17:58:35.239Z,3.50
2018-12-19T18:01:03.592Z,3.49
2018-12-19T18:03:31.922Z,3.49
2018-12-19T18:06:00.223Z,3.44
2018-12-19T18:08:28.572Z,3.41
2018-12-19T18:10:56.898Z,3.41
2018-12-19T18:13:25.268Z,3.42
2018-12-19T18:15:53.563Z,3.44
2018-12-19T18:18:21.939Z,3.45
2018-12-19T18:20:50.307Z,3.47
2018-12-19T18:23:18.684Z,3.49
2018-12-19T18:25:47.177Z,3.50
2018-12-19T18:28:15.544Z,3.51
2018-12-19T18:30:43.903Z,3.53
2018-12-19T18:33:12.305Z,3.53
2018-12-19T18:35:40.617Z,3.56
2018-12-19T18:38:09.058Z,3.54
2018-12-19T18:40:37.445Z,3.54
2018-12-19T18:43:05.827Z,3.55
2018-12-19T18:45:34.132Z,3.55
2018-12-19T18:48:02.455Z,3.55
2018-12-19T18:50:30.766Z,3.55
2018-12-19T18:52:59.099Z,3.54
2018-12-19T18:55:27.474Z,3.52
2018-12-19T18:57:55.844Z,3.52
2018-12-19T19:00:29.464Z,3.53
2018-12-19T19:02:57.885Z,3.53
2018-12-19T19:05:26.268Z,3.51
2018-12-19T19:07:54.833Z,3.52
2018-12-19T19:10:23.148Z,3.56
2018-12-19T19:12:51.513Z,3.57
2018-12-19T19:15:19.830Z,3.58
2018-12-19T19:17:48.302Z,3.59
2018-12-19T19:20:16.607Z,3.62
2018-12-19T19:22:44.927Z,3.63
2018-12-19T19:25:13.248Z,3.64
2018-12-19T19:27:41.560Z,3.63
2018-12-19T19:30:10.240Z,3.65
2018-12-19T19:32:38.547Z,3.65
2018-12-19T19:35:07.009Z,3.66
2018-12-19T19:37:35.315Z,3.65
2018-12-19T19:40:04.682Z,3.67
2018-12-19T19:42:33.063Z,3.69
2018-12-19T19:45:01.407Z,3.71
2018-12-19T19:47:29.884Z,3.71
2018-12-19T19:49:58.308Z,3.70
2018-12-19T19:52:26.973Z,3.71
2018-12-19T19:54:55.361Z,3.72
2018-12-19T19:57:23.663Z,3.73
2018-12-19T19:59:52.019Z,3.75
2018-12-19T20:02:20.332Z,3.74
2018-12-19T20:04:53.691Z,3.76
2018-12-19T20:07:22.036Z,3.75
2018-12-19T20:09:50.448Z,3.73
2018-12-19T20:12:18.758Z,3.71
2018-12-19T20:14:47.117Z,3.70
2018-12-19T20:19:56.021Z,3.66
2018-12-19T20:22:24.331Z,3.65
2018-12-19T20:24:52.660Z,3.64
2018-12-19T20:27:20.975Z,3.66
2018-12-19T20:29:49.381Z,3.65
2018-12-19T20:32:17.779Z,3.63
2018-12-19T20:34:46.156Z,3.63
2018-12-19T20:37:14.492Z,3.65
2018-12-19T20:39:42.866Z,3.64
2018-12-19T20:42:11.197Z,3.61
2018-12-19T20:44:39.513Z,3.60
2018-12-19T20:47:08.011Z,3.61
2018-12-19T20:49:36.323Z,3.61
2018-12-19T20:52:04.791Z,3.61
2018-12-19T20:54:33.105Z,3.61
2018-12-19T20:57:01.474Z,3.61
2018-12-19T20:59:29.858Z,3.59
2018-12-19T21:01:58.288Z,3.59
2018-12-19T21:04:26.643Z,3.60
2018-12-19T21:06:54.963Z,3.61
2018-12-19T21:09:23.332Z,3.60
2018-12-19T21:11:51.696Z,3.61
2018-12-19T21:14:19.989Z,3.62
2018-12-19T21:16:53.799Z,3.60
2018-12-19T21:19:22.169Z,3.61
2018-12-19T21:21:50.495Z,3.62
2018-12-19T21:24:18.825Z,3.64
2018-12-19T21:26:47.170Z,3.66
2018-12-19T21:29:15.476Z,3.68
2018-12-19T21:31:43.803Z,3.69
2018-12-19T21:34:12.118Z,3.70
2018-12-19T21:36:40.439Z,3.70
2018-12-19T21:39:09.772Z,3.71
2018-12-19T21:41:38.208Z,3.70
2018-12-19T21:44:06.610Z,3.67
2018-12-19T21:46:35.189Z,3.66
2018-12-19T21:49:03.551Z,3.66
2018-12-19T21:51:32.035Z,3.63
2018-12-19T21:54:00.509Z,3.63
2018-12-19T21:56:28.858Z,3.65
2018-12-19T21:58:57.379Z,3.64
2018-12-19T22:01:25.779Z,3.65
2018-12-19T22:03:54.239Z,3.67
2018-12-19T22:06:22.650Z,3.68
2018-12-19T22:08:51.077Z,3.69
2018-12-19T22:11:19.513Z,3.68
2018-12-19T22:13:48.099Z,3.67
2018-12-19T22:16:21.969Z,3.68
2018-12-19T22:18:50.367Z,3.66
2018-12-19T22:21:18.755Z,3.65
2018-12-19T22:23:47.157Z,3.64
2018-12-19T22:26:15.585Z,3.65
2018-12-19T22:28:44.061Z,3.63
2018-12-19T22:31:12.565Z,3.60
2018-12-19T22:33:40.904Z,3.62
2018-12-19T22:36:09.254Z,3.60
2018-12-19T22:38:37.668Z,3.61
2018-12-19T22:41:06.247Z,3.60
2018-12-19T22:43:34.716Z,3.61
2018-12-19T22:46:03.140Z,3.60
2018-12-19T22:48:31.558Z,3.60
2018-12-19T22:51:00.127Z,3.57
2018-12-19T22:53:28.567Z,3.56
2018-12-19T22:55:57.069Z,3.57
2018-12-19T22:58:25.378Z,3.56
2018-12-19T23:00:59.492Z,3.59
2018-12-19T23:03:33.398Z,3.58
2018-12-19T23:06:01.780Z,3.59
2018-12-19T23:08:30.215Z,3.57
2018-12-19T23:10:58.683Z,3.56
2018-12-19T23:13:27.159Z,3.55
2018-12-19T23:15:55.637Z,3.56
2018-12-19T23:18:26.707Z,3.55
2018-12-19T23:20:55.796Z,3.56
2018-12-19T23:23:24.360Z,3.56
2018-12-19T23:25:53.016Z,3.55
2018-12-19T23:28:21.763Z,3.55
2018-12-19T23:30:50.253Z,3.54
2018-12-19T23:33:18.832Z,3.56
2018-12-19T23:35:48.963Z,3.57
2018-12-19T23:38:17.463Z,3.57
2018-12-19T23:40:45.933Z,3.57
2018-12-19T23:43:14.407Z,3.59
2018-12-19T23:45:42.784Z,3.60
2018-12-19T23:48:11.173Z,3.59
2018-12-19T23:50:39.773Z,3.61
2018-12-19T23:53:08.493Z,3.62
2018-12-19T23:55:36.969Z,3.62
2018-12-19T23:58:05.380Z,3.63
